Time;durP1;ratioP1;P1;durP2;ratioP2;P2;SDS_P1;SDS_P2;PMS_P1;PMS_P2;Temp;Humidity;BMP_temperature;BMP_pressure;BME280_temperature;BME280_humidity;BME280_pressure;Samples;Min_cycle;Max_cycle;Signal;HPM_P1;HPM_P2
2022/07/08 00:03:57;;;;;;;;;;;;;;;;;;10461234;28;19925;-64
2022/07/08 00:08:59;;;;;;;;;;;;;;;;;;10460974;28;20364;-65
2022/07/08 00:14:01;;;;;;;;;;;;;;;;;;10460231;28;19925;-65
2022/07/08 00:19:03;;;;;;;;;;;;;;;;;;10460674;28;19925;-65
2022/07/08 00:24:05;;;;;;;;;;;;;;;;;;10460500;28;19933;-64
2022/07/08 00:29:07;;;;;;;;;;;;;;;;;;10459421;28;19924;-65
2022/07/08 00:34:09;;;;;;;;;;;;;;;;;;10459457;28;20387;-65
2022/07/08 00:39:12;;;;;;;;;;;;;;;;;;10459835;28;19925;-65
2022/07/08 00:44:14;;;;;;;;;;;;;;;;;;10459660;28;19935;-65
2022/07/08 00:49:16;;;;;;;;;;;;;;;;;;10459429;28;19931;-65
2022/07/08 00:54:18;;;;;;;;;;;;;;;;;;10459342;28;19931;-65
2022/07/08 00:59:20;;;;;;;;;;;;;;;;;;10459172;28;19932;-64
2022/07/08 01:04:22;;;;;;;;;;;;;;;;;;10458278;28;20279;-65
2022/07/08 01:09:25;;;;;;;;;;;;;;;;;;10458103;28;19961;-65
2022/07/08 01:14:27;;;;;;;;;;;;;;;;;;10457931;28;20284;-65
2022/07/08 01:19:29;;;;;;;;;;;;;;;;;;10457755;28;19925;-65
2022/07/08 01:24:31;;;;;;;;;;;;;;;;;;10457943;28;19925;-65
2022/07/08 01:29:33;;;;;;;;;;;;;;;;;;10457261;28;19931;-65
2022/07/08 01:34:36;;;;;;;;;;;;;;;;;;10440280;28;19924;-65
2022/07/08 01:39:38;;;;;;;;;;;;;;;;;;10457128;28;20292;-65
2022/07/08 01:44:40;;;;;;;;;;;;;;;;;;10456869;28;19924;-64
2022/07/08 01:49:42;;;;;;;;;;;;;;;;;;10457450;28;19925;-65
2022/07/08 01:54:44;;;;;;;;;;;;;;;;;;10457325;28;19929;-64
2022/07/08 01:59:46;;;;;;;;;;;;;;;;;;10456610;28;19925;-65
2022/07/08 02:04:48;;;;;;;;;;;;;;;;;;10457026;28;19925;-64
2022/07/08 02:09:50;;;;;;;;;;;;;;;;;;10456408;28;19925;-65
2022/07/08 02:14:53;;;;;;;;;;;;;;;;;;10460616;28;19928;-65
2022/07/08 02:19:55;;;;;;;;;;;;;;;;;;10464738;28;19929;-65
2022/07/08 02:24:57;;;;;;;;;;;;;;;;;;10464467;28;20272;-64
2022/07/08 02:29:59;;;;;;;;;;;;;;;;;;10446743;28;19932;-65
2022/07/08 02:35:01;;;;;;;;;;;;;;;;;;10464770;28;20012;-65
2022/07/08 02:40:03;;;;;;;;;;;;;;;;;;10463974;28;20376;-64
2022/07/08 02:45:05;;;;;;;;;;;;;;;;;;10464250;28;19928;-64
2022/07/08 02:50:07;;;;;;;;;;;;;;;;;;10464261;28;19932;-64
2022/07/08 02:55:09;;;;;;;;;;;;;;;;;;10464136;28;19932;-65
2022/07/08 03:00:11;;;;;;;;;;;;;;;;;;10446242;28;19924;-65
2022/07/08 03:05:13;;;;;;;;;;;;;;;;;;10463696;28;19925;-64
2022/07/08 03:10:15;;;;;;;;;;;;;;;;;;10462874;28;19929;-64
2022/07/08 03:15:17;;;;;;;;;;;;;;;;;;10445001;28;19925;-64
2022/07/08 03:20:19;;;;;;;;;;;;;;;;;;10462482;28;19931;-64
2022/07/08 03:25:21;;;;;;;;;;;;;;;;;;10461626;28;19925;-65
2022/07/08 03:30:24;;;;;;;;;;;;;;;;;;10462100;28;19925;-64
2022/07/08 03:35:26;;;;;;;;;;;;;;;;;;10461857;28;20273;-64
2022/07/08 03:45:53;;;;;;;;;;;;;;;;;;10462619;28;19924;-64
2022/07/08 03:50:55;;;;;;;;;;;;;;;;;;10461292;28;20383;-64
2022/07/08 03:55:57;;;;;;;;;;;;;;;;;;10461096;28;20423;-64
2022/07/08 04:00:59;;;;;;;;;;;;;;;;;;10460863;28;20384;-64
2022/07/08 04:06:01;;;;;;;;;;;;;;;;;;10461163;28;19925;-65
2022/07/08 04:11:04;;;;;;;;;;;;;;;;;;10461004;28;19932;-65
2022/07/08 04:16:11;;;;;;;;;;;;;;;;;;10460232;28;19932;-64
2022/07/08 04:21:14;;;;;;;;;;;;;;;;;;10459965;28;20438;-65
2022/07/08 04:26:16;;;;;;;;;;;;;;;;;;10460317;28;19925;-64
2022/07/08 04:31:18;;;;;;;;;;;;;;;;;;10442093;28;19924;-64
2022/07/08 04:36:20;;;;;;;;;;;;;;;;;;10459235;28;20367;-65
2022/07/08 04:41:22;;;;;;;;;;;;;;;;;;10459888;28;19932;-65
2022/07/08 04:46:24;;;;;;;;;;;;;;;;;;10459600;28;19924;-64
2022/07/08 04:51:26;;;;;;;;;;;;;;;;;;10458887;28;20445;-64
2022/07/08 04:56:30;;;;;;;;;;;;;;;;;;10441939;28;20032;-64
2022/07/08 05:01:33;;;;;;;;;;;;;;;;;;10459151;28;19929;-64
2022/07/08 05:06:35;;;;;;;;;;;;;;;;;;10458807;28;20373;-64
2022/07/08 05:11:37;;;;;;;;;;;;;;;;;;10458007;28;19928;-64
2022/07/08 05:16:39;;;;;;;;;;;;;;;;;;10458458;28;19924;-64
2022/07/08 05:21:42;;;;;;;;;;;;;;;;;;10458327;28;19974;-64
2022/07/08 05:26:44;;;;;;;;;;;;;;;;;;10458081;28;19925;-64
2022/07/08 05:31:46;;;;;;;;;;;;;;;;;;10457295;28;19929;-64
2022/07/08 05:36:48;;;;;;;;;;;;;;;;;;10457849;28;19925;-64
2022/07/08 05:41:51;;;;;;;;;;;;;;;;;;10457017;28;19924;-64
2022/07/08 05:46:53;;;;;;;;;;;;;;;;;;10465172;22;19932;-72
2022/07/08 05:51:55;;;;;;;;;;;;;;;;;;10456698;28;19925;-72
2022/07/08 05:56:57;;;;;;;;;;;;;;;;;;10457397;28;19928;-73
2022/07/08 06:02:00;;;;;;;;;;;;;;;;;;10456693;28;20291;-73
2022/07/08 06:07:02;;;;;;;;;;;;;;;;;;10457311;28;19925;-72
2022/07/08 06:12:04;;;;;;;;;;;;;;;;;;10457108;28;19925;-73
2022/07/08 06:17:06;;;;;;;;;;;;;;;;;;10457063;28;19932;-73
2022/07/08 06:22:09;;;;;;;;;;;;;;;;;;10456865;28;19932;-73
2022/07/08 06:27:12;;;;;;;;;;;;;;;;;;10456772;28;19925;-73
2022/07/08 06:32:14;;;;;;;;;;;;;;;;;;10456664;28;19931;-72
2022/07/08 06:37:16;;;;;;;;;;;;;;;;;;10456628;28;19925;-73
2022/07/08 06:42:20;;;;;;;;;;;;;;;;;;10455677;28;20380;-72
2022/07/08 06:47:22;;;;;;;;;;;;;;;;;;10456375;28;19932;-73
2022/07/08 06:52:25;;;;;;;;;;;;;;;;;;10455666;28;20334;-73
2022/07/08 06:57:27;;;;;;;;;;;;;;;;;;10455550;28;20392;-73
2022/07/08 07:02:29;;;;;;;;;;;;;;;;;;10461251;28;19925;-73
2022/07/08 07:07:31;;;;;;;;;;;;;;;;;;10463621;28;19931;-73
2022/07/08 07:12:33;;;;;;;;;;;;;;;;;;10463477;28;19929;-73
2022/07/08 07:17:35;;;;;;;;;;;;;;;;;;10463274;28;19929;-73
2022/07/08 07:22:37;;;;;;;;;;;;;;;;;;10462443;28;19935;-73
2022/07/08 07:27:39;;;;;;;;;;;;;;;;;;10462779;28;19931;-73
2022/07/08 07:32:42;;;;;;;;;;;;;;;;;;10461992;28;19932;-73
2022/07/08 07:37:44;;;;;;;;;;;;;;;;;;10461845;28;19924;-73
2022/07/08 07:42:46;;;;;;;;;;;;;;;;;;10461465;28;20363;-73
2022/07/08 07:47:48;;;;;;;;;;;;;;;;;;10461424;28;19929;-73
2022/07/08 07:52:50;;;;;;;;;;;;;;;;;;10461833;28;20353;-73
2022/07/08 07:57:52;;;;;;;;;;;;;;;;;;10461147;28;20386;-73
2022/07/08 08:02:54;;;;;;;;;;;;;;;;;;10461611;28;19931;-74
2022/07/08 08:07:56;;;;;;;;;;;;;;;;;;10461474;28;19925;-73
2022/07/08 08:12:58;;;;;;;;;;;;;;;;;;10459853;28;19947;-73
2022/07/08 08:18:00;;;;;;;;;;;;;;;;;;10460354;28;20368;-73
2022/07/08 08:23:03;;;;;;;;;;;;;;;;;;10460739;28;19963;-74
2022/07/08 08:28:24;;;;;;;;;;;;;;;;;;10460302;28;19929;-73
2022/07/08 08:33:26;;;;;;;;;;;;;;;;;;10459501;28;20283;-73
2022/07/08 08:38:28;;;;;;;;;;;;;;;;;;10442442;28;19929;-74
2022/07/08 08:43:31;;;;;;;;;;;;;;;;;;10459485;28;19931;-73
2022/07/08 08:48:33;;;;;;;;;;;;;;;;;;10441883;28;19925;-74
2022/07/08 08:53:40;;;;;;;;;;;;;;;;;;10459302;28;19925;-74
2022/07/08 08:58:46;;;;;;;;;;;;;;;;;;10441655;28;19924;-73
2022/07/08 09:03:48;;;;;;;;;;;;;;;;;;10458471;28;19929;-73
2022/07/08 09:08:50;;;;;;;;;;;;;;;;;;10458212;28;19931;-74
2022/07/08 09:13:52;;;;;;;;;;;;;;;;;;10458784;28;19932;-74
2022/07/08 09:18:57;;;;;;;;;;;;;;;;;;10457587;28;19932;-74
2022/07/08 09:23:59;;;;;;;;;;;;;;;;;;10456544;28;20364;-74
2022/07/08 09:29:03;;;;;;;;;;;;;;;;;;10458092;28;19925;-74
2022/07/08 09:34:05;;;;;;;;;;;;;;;;;;10457476;28;20330;-74
2022/07/08 09:39:07;;;;;;;;;;;;;;;;;;10440187;28;19925;-73
2022/07/08 09:44:09;;;;;;;;;;;;;;;;;;10457005;28;19931;-74
2022/07/08 09:49:11;;;;;;;;;;;;;;;;;;10439711;28;19928;-74
2022/07/08 09:54:13;;;;;;;;;;;;;;;;;;10457528;28;19925;-74
2022/07/08 09:59:15;;;;;;;;;;;;;;;;;;10456783;28;20284;-74
2022/07/08 10:04:18;;;;;;;;;;;;;;;;;;10457286;28;19925;-74
2022/07/08 10:09:20;;;;;;;;;;;;;;;;;;10457003;28;19925;-74
2022/07/08 10:14:23;;;;;;;;;;;;;;;;;;10456934;28;19925;-74
2022/07/08 10:19:25;;;;;;;;;;;;;;;;;;10439151;28;19924;-74
2022/07/08 10:24:27;;;;;;;;;;;;;;;;;;10456871;28;19932;-74
2022/07/08 10:29:29;;;;;;;;;;;;;;;;;;10456084;28;19925;-73
2022/07/08 10:34:31;;;;;;;;;;;;;;;;;;10457352;28;19931;-74
2022/07/08 10:39:34;;;;;;;;;;;;;;;;;;10464788;28;19925;-74
2022/07/08 10:44:36;;;;;;;;;;;;;;;;;;10464141;28;19924;-74
2022/07/08 10:49:38;;;;;;;;;;;;;;;;;;10464351;28;19928;-74
2022/07/08 10:54:40;;;;;;;;;;;;;;;;;;10464255;28;19932;-74
2022/07/08 10:59:42;;;;;;;;;;;;;;;;;;10463391;28;19948;-74
2022/07/08 11:04:44;;;;;;;;;;;;;;;;;;10463174;28;20295;-73
2022/07/08 11:09:46;;;;;;;;;;;;;;;;;;10463589;28;19925;-74
2022/07/08 11:14:48;;;;;;;;;;;;;;;;;;10463436;28;19929;-73
2022/07/08 11:19:51;;;;;;;;;;;;;;;;;;10462828;28;19947;-73
2022/07/08 11:24:54;;;;;;;;;;;;;;;;;;10463074;28;19925;-73
2022/07/08 11:29:56;;;;;;;;;;;;;;;;;;10462826;28;19931;-73
2022/07/08 11:34:58;;;;;;;;;;;;;;;;;;10462136;28;19935;-73
2022/07/08 11:40:01;;;;;;;;;;;;;;;;;;10462497;28;19931;-73
2022/07/08 11:45:04;;;;;;;;;;;;;;;;;;10461661;28;19968;-73
2022/07/08 11:50:06;;;;;;;;;;;;;;;;;;10461204;28;19924;-73
2022/07/08 11:55:08;;;;;;;;;;;;;;;;;;10461275;28;19952;-73
2022/07/08 12:00:10;;;;;;;;;;;;;;;;;;10461699;28;19925;-73
2022/07/08 12:05:12;;;;;;;;;;;;;;;;;;10460822;28;20389;-72
2022/07/08 12:10:15;;;;;;;;;;;;;;;;;;10461301;28;20015;-72
2022/07/08 12:15:17;;;;;;;;;;;;;;;;;;10442836;28;19952;-73
2022/07/08 12:20:19;;;;;;;;;;;;;;;;;;10460311;28;19959;-73
2022/07/08 12:25:21;;;;;;;;;;;;;;;;;;10460084;28;20380;-72
2022/07/08 12:30:23;;;;;;;;;;;;;;;;;;10459795;28;19924;-73
2022/07/08 12:35:29;;;;;;;;;;;;;;;;;;10460310;28;19924;-73
2022/07/08 12:40:31;;;;;;;;;;;;;;;;;;10460118;28;19931;-73
2022/07/08 12:45:33;;;;;;;;;;;;;;;;;;10459517;28;19925;-73
2022/07/08 12:50:35;;;;;;;;;;;;;;;;;;10458976;28;20296;-73
2022/07/08 12:55:37;;;;;;;;;;;;;;;;;;10458899;28;20395;-72
2022/07/08 13:00:39;;;;;;;;;;;;;;;;;;10441492;28;19932;-72
2022/07/08 13:05:41;;;;;;;;;;;;;;;;;;10459102;28;19924;-73
2022/07/08 13:10:43;;;;;;;;;;;;;;;;;;10458261;28;19924;-72
2022/07/08 13:15:45;;;;;;;;;;;;;;;;;;10458337;28;20324;-72
2022/07/08 13:20:47;;;;;;;;;;;;;;;;;;10458149;28;19925;-72
2022/07/08 13:25:51;;;;;;;;;;;;;;;;;;10458426;28;19925;-72
2022/07/08 13:30:53;;;;;;;;;;;;;;;;;;10457528;28;20269;-72
2022/07/08 13:35:56;;;;;;;;;;;;;;;;;;10457427;28;20379;-72
2022/07/08 13:40:58;;;;;;;;;;;;;;;;;;10457901;28;19929;-72
2022/07/08 13:46:00;;;;;;;;;;;;;;;;;;10457158;28;19932;-72
2022/07/08 13:51:02;;;;;;;;;;;;;;;;;;10457557;28;19924;-72
2022/07/08 13:56:05;;;;;;;;;;;;;;;;;;10456874;28;20298;-72
2022/07/08 14:01:07;;;;;;;;;;;;;;;;;;10439076;28;19925;-72
2022/07/08 14:06:09;;;;;;;;;;;;;;;;;;10457426;28;19972;-72
2022/07/08 14:11:11;;;;;;;;;;;;;;;;;;10464900;28;19931;-72
2022/07/08 14:16:13;;;;;;;;;;;;;;;;;;10470898;28;19932;-72
2022/07/08 14:21:16;;;;;;;;;;;;;;;;;;10470793;28;19970;-72
2022/07/08 14:26:19;;;;;;;;;;;;;;;;;;10470594;28;19932;-72
2022/07/08 14:31:21;;;;;;;;;;;;;;;;;;10470616;28;19925;-72
2022/07/08 14:36:23;;;;;;;;;;;;;;;;;;10470460;28;19925;-71
2022/07/08 14:41:25;;;;;;;;;;;;;;;;;;10470457;28;19925;-71
2022/07/08 14:46:27;;;;;;;;;;;;;;;;;;10469504;28;19925;-71
2022/07/08 14:51:29;;;;;;;;;;;;;;;;;;10470239;28;19955;-72
2022/07/08 14:56:31;;;;;;;;;;;;;;;;;;10470103;28;19925;-72
2022/07/08 15:01:34;;;;;;;;;;;;;;;;;;10470079;28;19931;-72
2022/07/08 15:06:36;;;;;;;;;;;;;;;;;;10469392;28;20438;-71
2022/07/08 15:11:38;;;;;;;;;;;;;;;;;;10469980;28;19932;-71
2022/07/08 15:16:40;;;;;;;;;;;;;;;;;;10469183;28;19925;-71
2022/07/08 15:21:42;;;;;;;;;;;;;;;;;;10467059;28;19932;-71
2022/07/08 15:26:44;;;;;;;;;;;;;;;;;;10462354;28;19924;-71
2022/07/08 15:31:46;;;;;;;;;;;;;;;;;;10462264;28;19982;-72
2022/07/08 15:36:48;;;;;;;;;;;;;;;;;;10462662;28;19924;-72
2022/07/08 15:41:50;;;;;;;;;;;;;;;;;;10462452;28;19925;-71
2022/07/08 15:46:52;;;;;;;;;;;;;;;;;;10419030;28;19932;-71
2022/07/08 15:51:54;;;;;;;;;;;;;;;;;;10420207;28;19948;-72
2022/07/08 15:56:58;;;;;;;;;;;;;;;;;;10419997;28;19932;-71
2022/07/08 16:02:00;;;;;;;;;;;;;;;;;;10420412;28;19932;-72
2022/07/08 16:07:02;;;;;;;;;;;;;;;;;;10420185;28;19979;-71
2022/07/08 16:12:04;;;;;;;;;;;;;;;;;;10419404;28;20376;-72
2022/07/08 16:17:06;;;;;;;;;;;;;;;;;;10419777;28;19932;-71
2022/07/08 16:22:14;;;;;;;;;;;;;;;;;;10418928;28;19925;-72
2022/07/08 16:27:17;;;;;;;;;;;;;;;;;;10416325;28;19947;-71
2022/07/08 16:32:19;;;;;;;;;;;;;;;;;;10424600;28;19936;-71
2022/07/08 16:37:26;;;;;;;;;;;;;;;;;;10436765;28;19925;-71
2022/07/08 16:42:28;;;;;;;;;;;;;;;;;;10420191;28;19925;-70
2022/07/08 16:47:30;;;;;;;;;;;;;;;;;;10458638;28;20292;-71
2022/07/08 16:52:33;;;;;;;;;;;;;;;;;;10458304;28;19925;-71
2022/07/08 16:57:35;;;;;;;;;;;;;;;;;;10459566;28;19932;-71
2022/07/08 17:02:37;;;;;;;;;;;;;;;;;;10458547;28;19925;-70
2022/07/08 17:07:39;;;;;;;;;;;;;;;;;;10455254;28;19932;-71
2022/07/08 17:12:41;;;;;;;;;;;;;;;;;;10457135;28;20401;-71
2022/07/08 17:17:44;;;;;;;;;;;;;;;;;;10457271;28;19925;-71
2022/07/08 17:22:46;;;;;;;;;;;;;;;;;;10458106;28;19932;-71
2022/07/08 17:27:48;;;;;;;;;;;;;;;;;;10457970;28;19932;-71
2022/07/08 17:32:50;;;;;;;;;;;;;;;;;;10439559;28;19932;-71
2022/07/08 17:37:52;;;;;;;;;;;;;;;;;;10453006;28;19932;-71
2022/07/08 17:42:54;;;;;;;;;;;;;;;;;;10447864;28;19928;-71
2022/07/08 17:47:57;;;;;;;;;;;;;;;;;;10442445;28;20288;-71
2022/07/08 17:52:59;;;;;;;;;;;;;;;;;;10441388;28;19932;-71
2022/07/08 17:58:01;;;;;;;;;;;;;;;;;;10456690;22;19978;-71
2022/07/08 18:03:03;;;;;;;;;;;;;;;;;;10449630;28;20248;-71
2022/07/08 18:08:06;;;;;;;;;;;;;;;;;;10431926;28;19929;-71
2022/07/08 18:13:08;;;;;;;;;;;;;;;;;;10449898;28;19925;-71
2022/07/08 18:18:10;;;;;;;;;;;;;;;;;;10449490;28;20383;-71
2022/07/08 18:23:12;;;;;;;;;;;;;;;;;;10449241;28;19936;-71
2022/07/08 18:28:14;;;;;;;;;;;;;;;;;;10449342;28;19929;-71
2022/07/08 18:33:16;;;;;;;;;;;;;;;;;;10449734;28;20024;-71
2022/07/08 18:38:18;;;;;;;;;;;;;;;;;;10448938;28;19928;-71
2022/07/08 18:43:20;;;;;;;;;;;;;;;;;;10449672;28;19932;-71
2022/07/08 18:48:22;;;;;;;;;;;;;;;;;;10449222;28;19929;-71
2022/07/08 18:53:24;;;;;;;;;;;;;;;;;;10448187;28;20034;-71
2022/07/08 18:58:27;;;;;;;;;;;;;;;;;;10454493;28;20356;-71
2022/07/08 19:03:29;;;;;;;;;;;;;;;;;;10438365;28;20012;-71
2022/07/08 19:08:31;;;;;;;;;;;;;;;;;;10456430;28;19928;-71
2022/07/08 19:13:34;;;;;;;;;;;;;;;;;;10456232;28;19928;-71
2022/07/08 19:18:36;;;;;;;;;;;;;;;;;;10434015;28;19928;-71
2022/07/08 19:23:39;;;;;;;;;;;;;;;;;;10436903;28;19935;-71
2022/07/08 19:28:46;;;;;;;;;;;;;;;;;;10461437;28;19924;-71
2022/07/08 19:33:48;;;;;;;;;;;;;;;;;;10462221;28;19968;-71
2022/07/08 19:38:50;;;;;;;;;;;;;;;;;;10461736;28;20023;-71
2022/07/08 19:43:53;;;;;;;;;;;;;;;;;;10444120;28;20376;-71
2022/07/08 19:48:55;;;;;;;;;;;;;;;;;;10462143;28;19925;-71
2022/07/08 19:53:57;;;;;;;;;;;;;;;;;;10459443;28;19924;-71
2022/07/08 19:59:00;;;;;;;;;;;;;;;;;;10461118;28;20019;-71
2022/07/08 20:04:02;;;;;;;;;;;;;;;;;;10461941;28;19925;-71
2022/07/08 20:09:04;;;;;;;;;;;;;;;;;;10459852;28;20398;-71
2022/07/08 20:14:07;;;;;;;;;;;;;;;;;;10461027;28;19932;-71
2022/07/08 20:19:09;;;;;;;;;;;;;;;;;;10460517;28;20372;-71
2022/07/08 20:24:11;;;;;;;;;;;;;;;;;;10460573;28;19929;-71
2022/07/08 20:29:13;;;;;;;;;;;;;;;;;;10460140;28;19925;-71
2022/07/08 20:34:15;;;;;;;;;;;;;;;;;;10460211;28;19925;-71
2022/07/08 20:39:19;;;;;;;;;;;;;;;;;;10459616;28;20139;-71
2022/07/08 20:44:22;;;;;;;;;;;;;;;;;;10460145;28;19935;-71
2022/07/08 20:49:24;;;;;;;;;;;;;;;;;;10459061;28;20403;-71
2022/07/08 20:54:27;;;;;;;;;;;;;;;;;;10459601;28;19932;-71
2022/07/08 20:59:29;;;;;;;;;;;;;;;;;;10458732;28;20333;-71
2022/07/08 21:04:31;;;;;;;;;;;;;;;;;;10458365;28;19943;-71
2022/07/08 21:09:33;;;;;;;;;;;;;;;;;;10458766;28;19925;-71
2022/07/08 21:14:35;;;;;;;;;;;;;;;;;;10458689;28;19925;-71
2022/07/08 21:19:37;;;;;;;;;;;;;;;;;;10458053;28;19932;-71
2022/07/08 21:24:39;;;;;;;;;;;;;;;;;;10457804;28;19924;-71
2022/07/08 21:29:41;;;;;;;;;;;;;;;;;;10457513;28;19929;-71
2022/07/08 21:34:43;;;;;;;;;;;;;;;;;;10457893;28;19932;-71
2022/07/08 21:39:45;;;;;;;;;;;;;;;;;;10457807;28;19932;-71
2022/07/08 21:44:47;;;;;;;;;;;;;;;;;;10457852;28;19925;-71
2022/07/08 21:49:50;;;;;;;;;;;;;;;;;;10457708;28;19932;-71
2022/07/08 21:54:52;;;;;;;;;;;;;;;;;;10456989;28;20276;-71
2022/07/08 21:59:54;;;;;;;;;;;;;;;;;;10439123;28;19932;-71
2022/07/08 22:04:56;;;;;;;;;;;;;;;;;;10457133;28;19939;-71
2022/07/08 22:09:59;;;;;;;;;;;;;;;;;;10439572;28;19925;-71
2022/07/08 22:15:07;;;;;;;;;;;;;;;;;;10438964;28;19971;-71
2022/07/08 22:20:09;;;;;;;;;;;;;;;;;;10456736;28;19931;-71
2022/07/08 22:25:11;;;;;;;;;;;;;;;;;;10456348;28;19929;-71
2022/07/08 22:30:13;;;;;;;;;;;;;;;;;;10456958;28;19933;-71
2022/07/08 22:35:15;;;;;;;;;;;;;;;;;;10464142;28;19936;-71
2022/07/08 22:40:18;;;;;;;;;;;;;;;;;;10464572;28;19932;-71
2022/07/08 22:45:20;;;;;;;;;;;;;;;;;;10464075;28;19924;-71
2022/07/08 22:50:22;;;;;;;;;;;;;;;;;;10464129;28;19935;-71
2022/07/08 22:55:24;;;;;;;;;;;;;;;;;;10463154;28;19948;-71
2022/07/08 23:00:26;;;;;;;;;;;;;;;;;;10463059;28;19936;-71
2022/07/08 23:05:28;;;;;;;;;;;;;;;;;;10463340;28;20003;-72
2022/07/08 23:10:30;;;;;;;;;;;;;;;;;;10422000;28;19932;-71
2022/07/08 23:15:32;;;;;;;;;;;;;;;;;;10421818;28;19929;-71
2022/07/08 23:20:34;;;;;;;;;;;;;;;;;;10424861;28;19925;-72
2022/07/08 23:25:36;;;;;;;;;;;;;;;;;;10445538;28;19951;-71
2022/07/08 23:30:38;;;;;;;;;;;;;;;;;;10462930;28;19925;-72
2022/07/08 23:35:40;;;;;;;;;;;;;;;;;;10461979;28;20272;-72
2022/07/08 23:40:42;;;;;;;;;;;;;;;;;;10461969;28;19929;-72
2022/07/08 23:45:45;;;;;;;;;;;;;;;;;;10460932;28;19932;-72
2022/07/08 23:50:47;;;;;;;;;;;;;;;;;;10461266;28;19948;-72
2022/07/08 23:55:49;;;;;;;;;;;;;;;;;;10461402;28;20368;-72
